sensor_id;sensor_type;location;lat;lon;timestamp;P1;durP1;ratioP1;P2;durP2;ratioP2
66478;SDS011;53294;47.912;13.526;2023-09-30T00:00:03;6.57;;;2.97;;
66478;SDS011;53294;47.912;13.526;2023-09-30T00:02:31;5.13;;;2.50;;
66478;SDS011;53294;47.912;13.526;2023-09-30T00:07:25;8.60;;;2.90;;
66478;SDS011;53294;47.912;13.526;2023-09-30T00:09:52;6.72;;;2.25;;
66478;SDS011;53294;47.912;13.526;2023-09-30T00:12:19;6.82;;;2.55;;
66478;SDS011;53294;47.912;13.526;2023-09-30T00:14:47;10.93;;;3.03;;
66478;SDS011;53294;47.912;13.526;2023-09-30T00:17:14;6.80;;;2.65;;
66478;SDS011;53294;47.912;13.526;2023-09-30T00:19:41;7.63;;;3.08;;
66478;SDS011;53294;47.912;13.526;2023-09-30T00:22:08;10.77;;;2.95;;
66478;SDS011;53294;47.912;13.526;2023-09-30T00:27:01;9.20;;;2.65;;
66478;SDS011;53294;47.912;13.526;2023-09-30T00:29:28;7.50;;;3.03;;
66478;SDS011;53294;47.912;13.526;2023-09-30T00:31:55;8.27;;;3.05;;
66478;SDS011;53294;47.912;13.526;2023-09-30T00:36:48;9.32;;;2.80;;
66478;SDS011;53294;47.912;13.526;2023-09-30T00:39:15;10.35;;;2.40;;
66478;SDS011;53294;47.912;13.526;2023-09-30T00:41:42;9.30;;;3.00;;
66478;SDS011;53294;47.912;13.526;2023-09-30T00:46:35;9.27;;;3.10;;
66478;SDS011;53294;47.912;13.526;2023-09-30T00:49:06;8.63;;;3.28;;
66478;SDS011;53294;47.912;13.526;2023-09-30T00:51:33;9.73;;;2.95;;
66478;SDS011;53294;47.912;13.526;2023-09-30T00:54:00;8.93;;;3.13;;
66478;SDS011;53294;47.912;13.526;2023-09-30T00:56:28;10.15;;;2.88;;
66478;SDS011;53294;47.912;13.526;2023-09-30T00:58:56;10.68;;;3.28;;
66478;SDS011;53294;47.912;13.526;2023-09-30T01:01:23;9.80;;;3.13;;
66478;SDS011;53294;47.912;13.526;2023-09-30T01:03:50;9.65;;;3.28;;
66478;SDS011;53294;47.912;13.526;2023-09-30T01:06:18;7.38;;;2.95;;
66478;SDS011;53294;47.912;13.526;2023-09-30T01:08:45;12.70;;;3.20;;
66478;SDS011;53294;47.912;13.526;2023-09-30T01:11:12;7.80;;;2.63;;
66478;SDS011;53294;47.912;13.526;2023-09-30T01:13:40;9.05;;;2.65;;
66478;SDS011;53294;47.912;13.526;2023-09-30T01:16:10;11.07;;;2.88;;
66478;SDS011;53294;47.912;13.526;2023-09-30T01:18:38;8.05;;;3.13;;
66478;SDS011;53294;47.912;13.526;2023-09-30T01:21:10;9.93;;;2.90;;
66478;SDS011;53294;47.912;13.526;2023-09-30T01:23:37;12.55;;;3.15;;
66478;SDS011;53294;47.912;13.526;2023-09-30T01:26:08;8.63;;;3.42;;
66478;SDS011;53294;47.912;13.526;2023-09-30T01:28:36;12.27;;;3.28;;
66478;SDS011;53294;47.912;13.526;2023-09-30T01:33:30;10.77;;;3.35;;
66478;SDS011;53294;47.912;13.526;2023-09-30T01:35:59;12.77;;;4.00;;
66478;SDS011;53294;47.912;13.526;2023-09-30T01:38:25;12.98;;;3.45;;
66478;SDS011;53294;47.912;13.526;2023-09-30T01:40:52;13.75;;;4.18;;
66478;SDS011;53294;47.912;13.526;2023-09-30T01:43:23;7.25;;;2.67;;
66478;SDS011;53294;47.912;13.526;2023-09-30T01:48:16;10.50;;;2.50;;
66478;SDS011;53294;47.912;13.526;2023-09-30T01:50:43;9.75;;;3.33;;
66478;SDS011;53294;47.912;13.526;2023-09-30T01:55:36;13.15;;;3.42;;
66478;SDS011;53294;47.912;13.526;2023-09-30T01:58:03;10.25;;;2.90;;
66478;SDS011;53294;47.912;13.526;2023-09-30T02:00:31;11.77;;;2.90;;
66478;SDS011;53294;47.912;13.526;2023-09-30T02:02:58;10.65;;;3.17;;
66478;SDS011;53294;47.912;13.526;2023-09-30T02:05:24;11.50;;;2.78;;
66478;SDS011;53294;47.912;13.526;2023-09-30T02:07:51;12.35;;;2.65;;
66478;SDS011;53294;47.912;13.526;2023-09-30T02:10:18;9.35;;;3.03;;
66478;SDS011;53294;47.912;13.526;2023-09-30T02:12:46;10.85;;;3.08;;
66478;SDS011;53294;47.912;13.526;2023-09-30T02:15:13;9.60;;;2.45;;
66478;SDS011;53294;47.912;13.526;2023-09-30T02:17:40;13.02;;;3.15;;
66478;SDS011;53294;47.912;13.526;2023-09-30T02:20:12;9.80;;;2.45;;
66478;SDS011;53294;47.912;13.526;2023-09-30T02:22:42;7.60;;;3.15;;
66478;SDS011;53294;47.912;13.526;2023-09-30T02:25:13;6.93;;;2.80;;
66478;SDS011;53294;47.912;13.526;2023-09-30T02:30:09;13.73;;;2.25;;
66478;SDS011;53294;47.912;13.526;2023-09-30T02:32:38;10.25;;;2.78;;
66478;SDS011;53294;47.912;13.526;2023-09-30T02:35:06;10.10;;;2.85;;
66478;SDS011;53294;47.912;13.526;2023-09-30T02:37:34;7.50;;;2.03;;
66478;SDS011;53294;47.912;13.526;2023-09-30T02:40:04;12.90;;;2.70;;
66478;SDS011;53294;47.912;13.526;2023-09-30T02:42:39;8.27;;;2.08;;
66478;SDS011;53294;47.912;13.526;2023-09-30T02:45:07;9.75;;;2.58;;
66478;SDS011;53294;47.912;13.526;2023-09-30T02:47:35;13.70;;;2.88;;
66478;SDS011;53294;47.912;13.526;2023-09-30T02:50:04;8.68;;;2.67;;
66478;SDS011;53294;47.912;13.526;2023-09-30T02:52:32;9.90;;;2.55;;
66478;SDS011;53294;47.912;13.526;2023-09-30T02:57:26;11.73;;;2.92;;
66478;SDS011;53294;47.912;13.526;2023-09-30T02:59:54;8.70;;;2.70;;
66478;SDS011;53294;47.912;13.526;2023-09-30T03:02:23;9.27;;;2.58;;
66478;SDS011;53294;47.912;13.526;2023-09-30T03:04:50;9.73;;;2.85;;
66478;SDS011;53294;47.912;13.526;2023-09-30T03:07:18;10.90;;;2.28;;
66478;SDS011;53294;47.912;13.526;2023-09-30T03:09:46;12.25;;;2.72;;
66478;SDS011;53294;47.912;13.526;2023-09-30T03:12:13;13.70;;;2.97;;
66478;SDS011;53294;47.912;13.526;2023-09-30T03:14:40;9.98;;;2.38;;
66478;SDS011;53294;47.912;13.526;2023-09-30T03:19:38;9.02;;;2.28;;
66478;SDS011;53294;47.912;13.526;2023-09-30T03:22:05;12.95;;;3.28;;
66478;SDS011;53294;47.912;13.526;2023-09-30T03:24:38;7.25;;;2.10;;
66478;SDS011;53294;47.912;13.526;2023-09-30T03:27:06;8.70;;;2.25;;
66478;SDS011;53294;47.912;13.526;2023-09-30T03:29:37;6.57;;;2.13;;
66478;SDS011;53294;47.912;13.526;2023-09-30T03:32:05;6.78;;;1.98;;
66478;SDS011;53294;47.912;13.526;2023-09-30T03:34:32;11.38;;;2.35;;
66478;SDS011;53294;47.912;13.526;2023-09-30T03:37:03;8.40;;;1.70;;
66478;SDS011;53294;47.912;13.526;2023-09-30T03:39:33;8.13;;;2.15;;
66478;SDS011;53294;47.912;13.526;2023-09-30T03:42:00;5.75;;;2.00;;
66478;SDS011;53294;47.912;13.526;2023-09-30T03:44:27;10.15;;;2.45;;
66478;SDS011;53294;47.912;13.526;2023-09-30T03:46:54;9.63;;;2.55;;
66478;SDS011;53294;47.912;13.526;2023-09-30T03:49:23;7.50;;;1.92;;
66478;SDS011;53294;47.912;13.526;2023-09-30T03:51:50;7.65;;;2.00;;
66478;SDS011;53294;47.912;13.526;2023-09-30T03:54:17;6.43;;;1.80;;
66478;SDS011;53294;47.912;13.526;2023-09-30T03:56:45;8.57;;;2.17;;
66478;SDS011;53294;47.912;13.526;2023-09-30T03:59:13;5.53;;;2.03;;
66478;SDS011;53294;47.912;13.526;2023-09-30T04:01:40;7.55;;;2.33;;
66478;SDS011;53294;47.912;13.526;2023-09-30T04:04:07;7.50;;;1.88;;
66478;SDS011;53294;47.912;13.526;2023-09-30T04:06:36;6.90;;;1.98;;
66478;SDS011;53294;47.912;13.526;2023-09-30T04:09:05;11.98;;;2.53;;
66478;SDS011;53294;47.912;13.526;2023-09-30T04:11:38;6.85;;;1.83;;
66478;SDS011;53294;47.912;13.526;2023-09-30T04:14:06;9.25;;;2.30;;
66478;SDS011;53294;47.912;13.526;2023-09-30T04:16:34;8.77;;;2.20;;
66478;SDS011;53294;47.912;13.526;2023-09-30T04:19:02;6.70;;;2.10;;
66478;SDS011;53294;47.912;13.526;2023-09-30T04:21:28;8.07;;;2.03;;
66478;SDS011;53294;47.912;13.526;2023-09-30T04:23:56;6.55;;;2.00;;
66478;SDS011;53294;47.912;13.526;2023-09-30T04:26:24;9.02;;;2.45;;
66478;SDS011;53294;47.912;13.526;2023-09-30T04:28:51;8.20;;;1.95;;
66478;SDS011;53294;47.912;13.526;2023-09-30T04:31:19;9.88;;;2.35;;
66478;SDS011;53294;47.912;13.526;2023-09-30T04:33:48;8.20;;;2.45;;
66478;SDS011;53294;47.912;13.526;2023-09-30T04:36:18;9.13;;;2.40;;
66478;SDS011;53294;47.912;13.526;2023-09-30T04:38:45;6.93;;;1.75;;
66478;SDS011;53294;47.912;13.526;2023-09-30T04:41:12;9.30;;;2.42;;
66478;SDS011;53294;47.912;13.526;2023-09-30T04:43:39;9.85;;;2.28;;
66478;SDS011;53294;47.912;13.526;2023-09-30T04:48:35;7.57;;;1.70;;
66478;SDS011;53294;47.912;13.526;2023-09-30T04:51:05;7.95;;;2.28;;
66478;SDS011;53294;47.912;13.526;2023-09-30T04:53:33;7.85;;;2.45;;
66478;SDS011;53294;47.912;13.526;2023-09-30T04:56:00;7.22;;;2.05;;
66478;SDS011;53294;47.912;13.526;2023-09-30T04:58:27;6.53;;;1.40;;
66478;SDS011;53294;47.912;13.526;2023-09-30T05:00:56;7.25;;;2.20;;
66478;SDS011;53294;47.912;13.526;2023-09-30T05:03:23;8.93;;;2.55;;
66478;SDS011;53294;47.912;13.526;2023-09-30T05:05:54;9.57;;;2.75;;
66478;SDS011;53294;47.912;13.526;2023-09-30T05:08:24;7.85;;;2.03;;
66478;SDS011;53294;47.912;13.526;2023-09-30T05:10:51;7.50;;;2.25;;
66478;SDS011;53294;47.912;13.526;2023-09-30T05:13:22;5.03;;;1.92;;
66478;SDS011;53294;47.912;13.526;2023-09-30T05:15:52;8.82;;;2.25;;
66478;SDS011;53294;47.912;13.526;2023-09-30T05:18:20;7.93;;;1.92;;
66478;SDS011;53294;47.912;13.526;2023-09-30T05:20:46;6.50;;;2.03;;
66478;SDS011;53294;47.912;13.526;2023-09-30T05:25:41;5.55;;;1.65;;
66478;SDS011;53294;47.912;13.526;2023-09-30T05:28:09;10.00;;;2.13;;
66478;SDS011;53294;47.912;13.526;2023-09-30T05:30:38;9.07;;;2.20;;
66478;SDS011;53294;47.912;13.526;2023-09-30T05:33:06;8.63;;;2.38;;
66478;SDS011;53294;47.912;13.526;2023-09-30T05:35:33;6.82;;;1.90;;
66478;SDS011;53294;47.912;13.526;2023-09-30T05:38:00;7.57;;;1.80;;
66478;SDS011;53294;47.912;13.526;2023-09-30T05:40:26;7.43;;;2.10;;
66478;SDS011;53294;47.912;13.526;2023-09-30T05:42:57;7.65;;;2.08;;
66478;SDS011;53294;47.912;13.526;2023-09-30T05:45:34;6.82;;;1.90;;
66478;SDS011;53294;47.912;13.526;2023-09-30T05:48:02;7.40;;;2.08;;
66478;SDS011;53294;47.912;13.526;2023-09-30T05:50:32;7.20;;;1.88;;
66478;SDS011;53294;47.912;13.526;2023-09-30T05:53:00;8.43;;;1.98;;
66478;SDS011;53294;47.912;13.526;2023-09-30T05:57:54;6.90;;;1.90;;
66478;SDS011;53294;47.912;13.526;2023-09-30T06:00:22;7.38;;;2.00;;
66478;SDS011;53294;47.912;13.526;2023-09-30T06:02:50;7.03;;;1.60;;
66478;SDS011;53294;47.912;13.526;2023-09-30T06:05:18;6.28;;;1.98;;
66478;SDS011;53294;47.912;13.526;2023-09-30T06:07:45;8.40;;;1.92;;
66478;SDS011;53294;47.912;13.526;2023-09-30T06:10:13;9.60;;;2.50;;
66478;SDS011;53294;47.912;13.526;2023-09-30T06:12:46;5.38;;;1.80;;
66478;SDS011;53294;47.912;13.526;2023-09-30T06:15:16;8.48;;;2.35;;
66478;SDS011;53294;47.912;13.526;2023-09-30T06:17:49;6.82;;;1.98;;
66478;SDS011;53294;47.912;13.526;2023-09-30T06:20:21;5.88;;;1.92;;
66478;SDS011;53294;47.912;13.526;2023-09-30T06:22:49;9.90;;;2.50;;
66478;SDS011;53294;47.912;13.526;2023-09-30T06:25:16;8.65;;;2.45;;
66478;SDS011;53294;47.912;13.526;2023-09-30T06:27:44;8.98;;;2.13;;
66478;SDS011;53294;47.912;13.526;2023-09-30T06:30:12;6.80;;;1.65;;
66478;SDS011;53294;47.912;13.526;2023-09-30T06:32:43;7.97;;;2.05;;
66478;SDS011;53294;47.912;13.526;2023-09-30T06:35:11;7.03;;;1.88;;
66478;SDS011;53294;47.912;13.526;2023-09-30T06:37:41;7.72;;;1.60;;
66478;SDS011;53294;47.912;13.526;2023-09-30T06:40:09;8.23;;;1.88;;
66478;SDS011;53294;47.912;13.526;2023-09-30T06:42:38;6.13;;;1.90;;
66478;SDS011;53294;47.912;13.526;2023-09-30T06:45:07;5.82;;;1.88;;
66478;SDS011;53294;47.912;13.526;2023-09-30T06:47:34;6.70;;;1.90;;
66478;SDS011;53294;47.912;13.526;2023-09-30T06:50:09;8.90;;;2.10;;
66478;SDS011;53294;47.912;13.526;2023-09-30T06:52:39;7.53;;;2.38;;
66478;SDS011;53294;47.912;13.526;2023-09-30T06:55:08;7.50;;;1.70;;
66478;SDS011;53294;47.912;13.526;2023-09-30T06:57:35;6.53;;;1.95;;
66478;SDS011;53294;47.912;13.526;2023-09-30T07:00:09;7.93;;;1.73;;
66478;SDS011;53294;47.912;13.526;2023-09-30T07:02:38;6.57;;;2.08;;
66478;SDS011;53294;47.912;13.526;2023-09-30T07:05:10;11.65;;;2.58;;
66478;SDS011;53294;47.912;13.526;2023-09-30T07:07:38;7.35;;;2.40;;
66478;SDS011;53294;47.912;13.526;2023-09-30T07:10:06;8.57;;;2.20;;
66478;SDS011;53294;47.912;13.526;2023-09-30T07:12:33;8.13;;;2.10;;
66478;SDS011;53294;47.912;13.526;2023-09-30T07:15:03;6.60;;;2.30;;
66478;SDS011;53294;47.912;13.526;2023-09-30T07:17:34;6.82;;;1.75;;
66478;SDS011;53294;47.912;13.526;2023-09-30T07:20:01;9.60;;;2.13;;
66478;SDS011;53294;47.912;13.526;2023-09-30T07:22:29;10.60;;;2.63;;
66478;SDS011;53294;47.912;13.526;2023-09-30T07:24:58;7.03;;;2.20;;
66478;SDS011;53294;47.912;13.526;2023-09-30T07:27:25;10.20;;;2.72;;
66478;SDS011;53294;47.912;13.526;2023-09-30T07:29:54;9.63;;;2.17;;
66478;SDS011;53294;47.912;13.526;2023-09-30T07:32:20;7.97;;;2.47;;
66478;SDS011;53294;47.912;13.526;2023-09-30T07:34:50;7.93;;;2.40;;
66478;SDS011;53294;47.912;13.526;2023-09-30T07:37:18;14.02;;;2.50;;
66478;SDS011;53294;47.912;13.526;2023-09-30T07:39:47;7.82;;;2.35;;
66478;SDS011;53294;47.912;13.526;2023-09-30T07:42:13;9.38;;;2.30;;
66478;SDS011;53294;47.912;13.526;2023-09-30T07:44:40;7.53;;;1.90;;
66478;SDS011;53294;47.912;13.526;2023-09-30T07:47:07;9.05;;;2.45;;
66478;SDS011;53294;47.912;13.526;2023-09-30T07:49:35;7.95;;;2.22;;
66478;SDS011;53294;47.912;13.526;2023-09-30T07:52:04;10.60;;;2.45;;
66478;SDS011;53294;47.912;13.526;2023-09-30T07:54:30;5.20;;;1.42;;
66478;SDS011;53294;47.912;13.526;2023-09-30T07:56:58;8.70;;;2.45;;
66478;SDS011;53294;47.912;13.526;2023-09-30T07:59:25;12.80;;;2.80;;
66478;SDS011;53294;47.912;13.526;2023-09-30T08:01:53;8.93;;;2.78;;
66478;SDS011;53294;47.912;13.526;2023-09-30T08:04:20;8.07;;;2.38;;
66478;SDS011;53294;47.912;13.526;2023-09-30T08:06:47;9.45;;;2.58;;
66478;SDS011;53294;47.912;13.526;2023-09-30T08:09:15;9.05;;;2.30;;
66478;SDS011;53294;47.912;13.526;2023-09-30T08:11:42;10.93;;;2.17;;
66478;SDS011;53294;47.912;13.526;2023-09-30T08:14:09;10.77;;;2.55;;
66478;SDS011;53294;47.912;13.526;2023-09-30T08:16:36;8.73;;;2.22;;
66478;SDS011;53294;47.912;13.526;2023-09-30T08:19:04;8.30;;;1.88;;
66478;SDS011;53294;47.912;13.526;2023-09-30T08:21:31;7.28;;;2.42;;
66478;SDS011;53294;47.912;13.526;2023-09-30T08:23:58;10.15;;;2.45;;
66478;SDS011;53294;47.912;13.526;2023-09-30T08:26:25;8.95;;;2.60;;
66478;SDS011;53294;47.912;13.526;2023-09-30T08:28:52;7.18;;;2.47;;
66478;SDS011;53294;47.912;13.526;2023-09-30T08:31:19;10.48;;;2.90;;
66478;SDS011;53294;47.912;13.526;2023-09-30T08:33:48;9.85;;;3.35;;
66478;SDS011;53294;47.912;13.526;2023-09-30T08:36:14;11.82;;;2.72;;
66478;SDS011;53294;47.912;13.526;2023-09-30T08:38:41;9.38;;;2.90;;
66478;SDS011;53294;47.912;13.526;2023-09-30T08:41:08;9.50;;;2.42;;
66478;SDS011;53294;47.912;13.526;2023-09-30T08:43:36;12.00;;;3.28;;
66478;SDS011;53294;47.912;13.526;2023-09-30T08:46:07;8.90;;;2.80;;
66478;SDS011;53294;47.912;13.526;2023-09-30T08:48:34;10.15;;;2.33;;
66478;SDS011;53294;47.912;13.526;2023-09-30T08:51:01;10.90;;;2.95;;
66478;SDS011;53294;47.912;13.526;2023-09-30T08:53:29;9.57;;;2.90;;
66478;SDS011;53294;47.912;13.526;2023-09-30T08:55:56;11.23;;;2.88;;
66478;SDS011;53294;47.912;13.526;2023-09-30T08:58:26;11.20;;;2.40;;
66478;SDS011;53294;47.912;13.526;2023-09-30T09:00:54;12.07;;;3.00;;
66478;SDS011;53294;47.912;13.526;2023-09-30T09:03:23;9.73;;;2.92;;
66478;SDS011;53294;47.912;13.526;2023-09-30T09:05:56;12.05;;;3.20;;
66478;SDS011;53294;47.912;13.526;2023-09-30T09:08:25;10.90;;;3.15;;
66478;SDS011;53294;47.912;13.526;2023-09-30T09:10:55;13.25;;;4.10;;
66478;SDS011;53294;47.912;13.526;2023-09-30T09:13:24;13.02;;;3.63;;
66478;SDS011;53294;47.912;13.526;2023-09-30T09:16:09;14.82;;;3.78;;
66478;SDS011;53294;47.912;13.526;2023-09-30T09:18:37;10.43;;;2.47;;
66478;SDS011;53294;47.912;13.526;2023-09-30T09:21:08;10.82;;;3.17;;
66478;SDS011;53294;47.912;13.526;2023-09-30T09:23:38;8.57;;;2.80;;
66478;SDS011;53294;47.912;13.526;2023-09-30T09:26:28;14.00;;;4.00;;
66478;SDS011;53294;47.912;13.526;2023-09-30T09:29:02;12.38;;;3.67;;
66478;SDS011;53294;47.912;13.526;2023-09-30T09:31:32;9.95;;;3.08;;
66478;SDS011;53294;47.912;13.526;2023-09-30T09:34:04;12.93;;;3.33;;
66478;SDS011;53294;47.912;13.526;2023-09-30T09:36:41;10.77;;;3.50;;
66478;SDS011;53294;47.912;13.526;2023-09-30T09:39:14;12.43;;;3.67;;
66478;SDS011;53294;47.912;13.526;2023-09-30T09:41:52;15.85;;;3.83;;
66478;SDS011;53294;47.912;13.526;2023-09-30T09:44:21;12.40;;;3.35;;
66478;SDS011;53294;47.912;13.526;2023-09-30T09:46:49;15.50;;;3.83;;
66478;SDS011;53294;47.912;13.526;2023-09-30T09:49:17;14.65;;;4.10;;
66478;SDS011;53294;47.912;13.526;2023-09-30T09:51:45;11.63;;;3.25;;
66478;SDS011;53294;47.912;13.526;2023-09-30T09:54:12;12.90;;;4.07;;
66478;SDS011;53294;47.912;13.526;2023-09-30T09:56:44;11.70;;;3.22;;
66478;SDS011;53294;47.912;13.526;2023-09-30T09:59:11;10.35;;;2.78;;
66478;SDS011;53294;47.912;13.526;2023-09-30T10:01:40;11.82;;;3.25;;
66478;SDS011;53294;47.912;13.526;2023-09-30T10:04:12;10.05;;;3.00;;
66478;SDS011;53294;47.912;13.526;2023-09-30T10:09:11;10.07;;;3.72;;
66478;SDS011;53294;47.912;13.526;2023-09-30T10:11:40;11.10;;;2.92;;
66478;SDS011;53294;47.912;13.526;2023-09-30T10:14:08;12.88;;;3.53;;
66478;SDS011;53294;47.912;13.526;2023-09-30T10:19:11;10.73;;;3.85;;
66478;SDS011;53294;47.912;13.526;2023-09-30T10:24:52;13.38;;;2.80;;
66478;SDS011;53294;47.912;13.526;2023-09-30T10:40:59;10.38;;;2.95;;
66478;SDS011;53294;47.912;13.526;2023-09-30T10:43:31;10.55;;;3.47;;
66478;SDS011;53294;47.912;13.526;2023-09-30T10:45:59;15.38;;;3.40;;
66478;SDS011;53294;47.912;13.526;2023-09-30T10:51:11;15.82;;;3.63;;
66478;SDS011;53294;47.912;13.526;2023-09-30T10:53:51;15.13;;;3.10;;
66478;SDS011;53294;47.912;13.526;2023-09-30T10:56:23;12.18;;;3.45;;
66478;SDS011;53294;47.912;13.526;2023-09-30T10:58:57;17.42;;;3.75;;
66478;SDS011;53294;47.912;13.526;2023-09-30T11:01:24;13.63;;;4.00;;
66478;SDS011;53294;47.912;13.526;2023-09-30T11:04:01;12.45;;;3.50;;
66478;SDS011;53294;47.912;13.526;2023-09-30T11:06:31;13.48;;;4.10;;
66478;SDS011;53294;47.912;13.526;2023-09-30T11:08:59;13.57;;;3.60;;
66478;SDS011;53294;47.912;13.526;2023-09-30T11:16:59;13.80;;;4.32;;
66478;SDS011;53294;47.912;13.526;2023-09-30T11:22:03;13.63;;;4.20;;
66478;SDS011;53294;47.912;13.526;2023-09-30T11:24:34;12.50;;;3.95;;
66478;SDS011;53294;47.912;13.526;2023-09-30T11:27:02;13.77;;;4.13;;
66478;SDS011;53294;47.912;13.526;2023-09-30T11:29:30;7.63;;;2.97;;
66478;SDS011;53294;47.912;13.526;2023-09-30T11:31:57;12.68;;;4.45;;
66478;SDS011;53294;47.912;13.526;2023-09-30T11:34:34;13.40;;;3.92;;
66478;SDS011;53294;47.912;13.526;2023-09-30T11:37:05;18.30;;;4.80;;
66478;SDS011;53294;47.912;13.526;2023-09-30T11:39:32;13.23;;;4.30;;
66478;SDS011;53294;47.912;13.526;2023-09-30T11:42:00;14.50;;;4.72;;
66478;SDS011;53294;47.912;13.526;2023-09-30T11:44:27;16.50;;;4.28;;
66478;SDS011;53294;47.912;13.526;2023-09-30T11:46:58;12.90;;;4.22;;
66478;SDS011;53294;47.912;13.526;2023-09-30T11:49:32;14.55;;;4.80;;
66478;SDS011;53294;47.912;13.526;2023-09-30T11:52:08;15.10;;;4.78;;
66478;SDS011;53294;47.912;13.526;2023-09-30T11:54:38;15.23;;;4.50;;
66478;SDS011;53294;47.912;13.526;2023-09-30T11:57:14;12.38;;;3.47;;
66478;SDS011;53294;47.912;13.526;2023-09-30T11:59:42;14.57;;;4.10;;
66478;SDS011;53294;47.912;13.526;2023-09-30T12:02:12;15.52;;;4.75;;
66478;SDS011;53294;47.912;13.526;2023-09-30T12:04:42;12.43;;;4.45;;
66478;SDS011;53294;47.912;13.526;2023-09-30T12:07:11;17.63;;;4.43;;
66478;SDS011;53294;47.912;13.526;2023-09-30T12:09:38;14.73;;;5.63;;
66478;SDS011;53294;47.912;13.526;2023-09-30T12:12:07;14.52;;;4.30;;
66478;SDS011;53294;47.912;13.526;2023-09-30T12:14:38;14.00;;;3.75;;
66478;SDS011;53294;47.912;13.526;2023-09-30T12:17:05;15.07;;;4.03;;
66478;SDS011;53294;47.912;13.526;2023-09-30T12:19:32;16.15;;;4.40;;
66478;SDS011;53294;47.912;13.526;2023-09-30T12:21:58;17.27;;;5.45;;
66478;SDS011;53294;47.912;13.526;2023-09-30T12:24:25;12.95;;;3.42;;
66478;SDS011;53294;47.912;13.526;2023-09-30T12:26:54;15.75;;;4.32;;
66478;SDS011;53294;47.912;13.526;2023-09-30T12:29:21;14.57;;;4.18;;
66478;SDS011;53294;47.912;13.526;2023-09-30T12:31:50;15.13;;;4.60;;
66478;SDS011;53294;47.912;13.526;2023-09-30T12:34:21;16.15;;;4.05;;
66478;SDS011;53294;47.912;13.526;2023-09-30T12:36:54;22.65;;;4.47;;
66478;SDS011;53294;47.912;13.526;2023-09-30T12:39:23;14.60;;;4.40;;
66478;SDS011;53294;47.912;13.526;2023-09-30T12:41:52;14.43;;;4.45;;
66478;SDS011;53294;47.912;13.526;2023-09-30T12:44:19;15.95;;;4.30;;
66478;SDS011;53294;47.912;13.526;2023-09-30T12:46:46;16.60;;;4.20;;
66478;SDS011;53294;47.912;13.526;2023-09-30T12:49:13;20.60;;;5.78;;
66478;SDS011;53294;47.912;13.526;2023-09-30T12:51:40;19.88;;;5.38;;
66478;SDS011;53294;47.912;13.526;2023-09-30T12:54:07;15.23;;;4.30;;
66478;SDS011;53294;47.912;13.526;2023-09-30T12:56:35;17.15;;;5.13;;
66478;SDS011;53294;47.912;13.526;2023-09-30T12:59:02;17.15;;;4.50;;
66478;SDS011;53294;47.912;13.526;2023-09-30T13:01:29;21.83;;;5.55;;
66478;SDS011;53294;47.912;13.526;2023-09-30T13:04:01;14.20;;;4.57;;
66478;SDS011;53294;47.912;13.526;2023-09-30T13:06:28;15.18;;;4.80;;
66478;SDS011;53294;47.912;13.526;2023-09-30T13:08:56;16.25;;;4.70;;
66478;SDS011;53294;47.912;13.526;2023-09-30T13:11:23;19.85;;;5.10;;
66478;SDS011;53294;47.912;13.526;2023-09-30T13:13:50;19.95;;;5.45;;
66478;SDS011;53294;47.912;13.526;2023-09-30T13:16:17;16.52;;;4.60;;
66478;SDS011;53294;47.912;13.526;2023-09-30T13:18:44;18.10;;;5.00;;
66478;SDS011;53294;47.912;13.526;2023-09-30T13:21:11;22.40;;;5.80;;
66478;SDS011;53294;47.912;13.526;2023-09-30T13:23:38;17.95;;;5.55;;
66478;SDS011;53294;47.912;13.526;2023-09-30T13:26:05;19.45;;;5.15;;
66478;SDS011;53294;47.912;13.526;2023-09-30T13:28:32;17.23;;;5.50;;
66478;SDS011;53294;47.912;13.526;2023-09-30T13:30:59;21.02;;;5.35;;
66478;SDS011;53294;47.912;13.526;2023-09-30T13:33:25;22.65;;;5.95;;
66478;SDS011;53294;47.912;13.526;2023-09-30T13:35:52;18.77;;;5.72;;
66478;SDS011;53294;47.912;13.526;2023-09-30T13:38:21;16.10;;;4.90;;
66478;SDS011;53294;47.912;13.526;2023-09-30T13:40:48;16.98;;;4.72;;
66478;SDS011;53294;47.912;13.526;2023-09-30T13:43:15;16.10;;;5.38;;
66478;SDS011;53294;47.912;13.526;2023-09-30T13:45:42;19.50;;;5.85;;
66478;SDS011;53294;47.912;13.526;2023-09-30T13:48:08;19.10;;;5.32;;
66478;SDS011;53294;47.912;13.526;2023-09-30T13:50:35;19.38;;;6.07;;
66478;SDS011;53294;47.912;13.526;2023-09-30T13:53:02;18.35;;;5.43;;
66478;SDS011;53294;47.912;13.526;2023-09-30T13:55:29;20.88;;;5.30;;
66478;SDS011;53294;47.912;13.526;2023-09-30T13:57:56;21.20;;;5.47;;
66478;SDS011;53294;47.912;13.526;2023-09-30T14:00:23;21.92;;;6.45;;
66478;SDS011;53294;47.912;13.526;2023-09-30T14:02:49;25.92;;;7.28;;
66478;SDS011;53294;47.912;13.526;2023-09-30T14:05:18;24.52;;;6.35;;
66478;SDS011;53294;47.912;13.526;2023-09-30T14:07:45;21.05;;;5.63;;
66478;SDS011;53294;47.912;13.526;2023-09-30T14:10:12;25.73;;;7.57;;
66478;SDS011;53294;47.912;13.526;2023-09-30T14:12:39;28.42;;;7.82;;
66478;SDS011;53294;47.912;13.526;2023-09-30T14:15:07;26.52;;;7.05;;
66478;SDS011;53294;47.912;13.526;2023-09-30T14:17:34;31.17;;;7.03;;
66478;SDS011;53294;47.912;13.526;2023-09-30T14:20:02;25.45;;;5.80;;
66478;SDS011;53294;47.912;13.526;2023-09-30T14:22:32;20.65;;;5.85;;
66478;SDS011;53294;47.912;13.526;2023-09-30T14:24:59;28.08;;;7.63;;
66478;SDS011;53294;47.912;13.526;2023-09-30T14:27:26;17.05;;;5.22;;
66478;SDS011;53294;47.912;13.526;2023-09-30T14:29:53;25.70;;;7.65;;
66478;SDS011;53294;47.912;13.526;2023-09-30T14:32:19;26.60;;;7.95;;
66478;SDS011;53294;47.912;13.526;2023-09-30T14:34:46;28.00;;;6.70;;
66478;SDS011;53294;47.912;13.526;2023-09-30T14:37:13;22.05;;;5.70;;
66478;SDS011;53294;47.912;13.526;2023-09-30T14:39:40;25.55;;;6.80;;
66478;SDS011;53294;47.912;13.526;2023-09-30T14:42:07;20.05;;;5.43;;
66478;SDS011;53294;47.912;13.526;2023-09-30T14:44:34;23.08;;;6.15;;
66478;SDS011;53294;47.912;13.526;2023-09-30T14:47:01;25.77;;;7.47;;
66478;SDS011;53294;47.912;13.526;2023-09-30T14:49:28;24.40;;;6.60;;
66478;SDS011;53294;47.912;13.526;2023-09-30T14:51:57;20.88;;;6.32;;
66478;SDS011;53294;47.912;13.526;2023-09-30T14:54:24;25.63;;;7.03;;
66478;SDS011;53294;47.912;13.526;2023-09-30T14:56:51;21.65;;;5.32;;
66478;SDS011;53294;47.912;13.526;2023-09-30T14:59:18;25.55;;;6.57;;
66478;SDS011;53294;47.912;13.526;2023-09-30T15:01:46;22.45;;;6.90;;
66478;SDS011;53294;47.912;13.526;2023-09-30T15:04:13;25.75;;;6.00;;
66478;SDS011;53294;47.912;13.526;2023-09-30T15:06:42;26.95;;;6.07;;
66478;SDS011;53294;47.912;13.526;2023-09-30T15:09:09;18.55;;;5.78;;
66478;SDS011;53294;47.912;13.526;2023-09-30T15:11:38;20.27;;;6.00;;
66478;SDS011;53294;47.912;13.526;2023-09-30T15:14:05;24.25;;;6.40;;
66478;SDS011;53294;47.912;13.526;2023-09-30T15:16:32;20.42;;;6.40;;
66478;SDS011;53294;47.912;13.526;2023-09-30T15:18:59;23.23;;;6.35;;
66478;SDS011;53294;47.912;13.526;2023-09-30T15:21:26;17.83;;;5.57;;
66478;SDS011;53294;47.912;13.526;2023-09-30T15:23:53;19.73;;;5.90;;
66478;SDS011;53294;47.912;13.526;2023-09-30T15:26:20;18.98;;;5.82;;
66478;SDS011;53294;47.912;13.526;2023-09-30T15:28:46;22.35;;;6.60;;
66478;SDS011;53294;47.912;13.526;2023-09-30T15:31:14;24.85;;;6.90;;
66478;SDS011;53294;47.912;13.526;2023-09-30T15:33:41;24.33;;;6.25;;
66478;SDS011;53294;47.912;13.526;2023-09-30T15:36:13;18.95;;;5.55;;
66478;SDS011;53294;47.912;13.526;2023-09-30T15:38:44;21.80;;;5.43;;